Aérodrome :
LOGIN :

S'inscrire | Disclaimer

   EN    FR    IT 

 










Légende :    VFR   VFR Marginal   IFR   IFR Intensif   IFR Très Intensif
Visi : 
Plafond : 
>= 8 km
>= 3000ft
5 à 8 km
1000 à 3000 ft
1500m à 5 km
500 à 1000 ft
800 à 1500m
200 à 500 ft
< 800m
< 200 ft
Symboles :   Orages  Brouillard  Fortes neiges  Fortes précipitations  Vent > 20 kt
SIGMETs :   Divers  Orages  Givrage  Turbulence  Onde Orograph.  Cendres Volcan.






- Altitude de l'aérodrome : 297 ft
- Code IATA : UIP


LFRQ - Quimper Pluguffan

DERNIER METAR :
  • 301430Z AUTO 20013KT 170V230 5000 RA BR OVC007/// ///CB 15/14 Q1007 TEMPO 20015G25KT 1000 +RA BECMG BKN020

METARs EXPIRÉS :
  • 301400Z AUTO 20011KT 3100 +RA BR BKN013/// OVC019/// ///CB 15/14 Q1008 TEMPO 1000 +RA OVC003 BECMG 20015G25KT
  • 301330Z AUTO 21013G25KT 7000 -RA OVC016/// ///TCU 15/13 Q1008 TEMPO 1000 +RA OVC003
  • 301300Z AUTO 20013G23KT 170V230 9999 OVC018 16/13 Q1008 TEMPO 1000 +RA OVC003
  • 301230Z AUTO 19011KT 160V220 9999 BKN021 OVC027 16/13 Q1009 TEMPO 1000 +RA OVC003 BECMG 20015G25KT
  • 301200Z AUTO 19010G21KT 9999 FEW020 BKN030 OVC086 16/13 Q1009 TEMPO 1000 +RA OVC003

TAF TAF LFRQ
Valide du 30 à 12h jusqu'au 01 à 12h UTC


301100Z 3012/0112 20015G25KT 3000 RA OVC006
TEMPO 3013/3016 1000 +RA OVC003
BECMG 3016/3018 27010KT 9999 SHRA BKN020



MET'MAP, la Météo Aéronautique d'un coup d'oeil ! - Copyright ORBIFLY Décembre 2007 - Disclaimer

ORBIFLY MET'MAP TEAM :

Programmation & Développement : Alexandra Zaïnal
Sur une idée originale de : Baudouin d'Aumeries
Assistance à la programmation : Marc-Olivier Méhu
Soutien technique & logistique : Manuel Goepfert

Contact : metmap@orbifly.com




SOURCES & CREDITS :

   NOAA